Time;durP1;ratioP1;P1;durP2;ratioP2;P2;SDS_P1;SDS_P2;PMS_P1;PMS_P2;Temp;Humidity;BMP_temperature;BMP_pressure;BME280_temperature;BME280_humidity;BME280_pressure;Samples;Min_cycle;Max_cycle;Signal;HPM_P1;HPM_P2
2021/05/05 00:00:47;;;;;;;;;;;6.90;99.90;;;;;;5049181;28;19920;-72
2021/05/05 00:03:15;;;;;;;;;;;6.90;99.90;;;;;;5049553;28;19916;-73
2021/05/05 00:05:41;;;;;;;;;;;6.80;99.90;;;;;;5049766;28;20543;-72
2021/05/05 00:08:06;;;;;;;;;;;6.80;99.90;;;;;;5048075;28;19925;-72
2021/05/05 00:10:32;;;;;;;;;;;6.80;99.90;;;;;;5029349;28;19927;-73
2021/05/05 00:12:57;;;;;;;;;;;6.80;99.90;;;;;;5030927;28;19995;-72
2021/05/05 00:15:25;;;;;;;;;;;6.80;99.90;;;;;;5049182;28;20047;-72
2021/05/05 00:17:56;;;;;;;;;;;6.70;99.90;;;;;;5014016;28;19920;-72
2021/05/05 00:20:24;;;;;;;;;;;6.70;99.90;;;;;;5049726;28;20257;-72
2021/05/05 00:22:52;;;;;;;;;;;6.70;99.90;;;;;;5049155;28;19920;-72
2021/05/05 00:25:20;;;;;;;;;;;6.70;99.90;;;;;;5032020;28;20451;-72
2021/05/05 00:27:45;;;;;;;;;;;6.70;99.90;;;;;;5049807;28;19927;-73
2021/05/05 00:30:11;;;;;;;;;;;6.60;99.90;;;;;;5031930;28;19920;-72
2021/05/05 00:32:37;;;;;;;;;;;6.60;99.90;;;;;;5048475;28;19928;-72
2021/05/05 00:35:03;;;;;;;;;;;6.60;99.90;;;;;;5048676;28;20357;-72
2021/05/05 00:37:31;;;;;;;;;;;6.70;99.90;;;;;;5048609;28;19917;-72
2021/05/05 00:39:58;;;;;;;;;;;6.70;99.90;;;;;;5049367;28;19935;-73
2021/05/05 00:42:24;;;;;;;;;;;6.60;99.90;;;;;;5028075;28;19931;-73
2021/05/05 00:44:50;;;;;;;;;;;6.60;99.90;;;;;;5028146;28;19970;-73
2021/05/05 00:47:15;;;;;;;;;;;6.60;99.90;;;;;;5031566;28;19917;-73
2021/05/05 00:49:41;;;;;;;;;;;6.60;99.90;;;;;;5047884;28;19920;-73
2021/05/05 00:52:06;;;;;;;;;;;6.70;99.90;;;;;;5029582;28;19917;-73
2021/05/05 00:54:32;;;;;;;;;;;6.60;99.90;;;;;;5030084;28;19920;-73
2021/05/05 00:56:57;;;;;;;;;;;6.60;99.90;;;;;;5029896;28;19965;-73
2021/05/05 00:59:25;;;;;;;;;;;6.60;99.90;;;;;;5028840;28;20385;-73
2021/05/05 01:01:52;;;;;;;;;;;6.60;99.90;;;;;;5031413;28;19924;-73
2021/05/05 01:04:20;;;;;;;;;;;6.60;99.90;;;;;;5049064;28;20062;-74
2021/05/05 01:06:46;;;;;;;;;;;6.60;99.90;;;;;;5031319;28;19940;-73
2021/05/05 01:09:14;;;;;;;;;;;6.60;99.90;;;;;;5048516;28;20081;-73
2021/05/05 01:11:40;;;;;;;;;;;6.50;99.90;;;;;;5031791;28;19920;-72
2021/05/05 01:14:05;;;;;;;;;;;6.60;99.90;;;;;;5049806;28;20278;-73
2021/05/05 01:16:31;;;;;;;;;;;6.60;99.90;;;;;;5047802;28;20007;-73
2021/05/05 01:18:56;;;;;;;;;;;6.50;99.90;;;;;;5048904;28;20009;-73
2021/05/05 01:21:22;;;;;;;;;;;6.60;99.90;;;;;;5048973;28;19924;-73
2021/05/05 01:23:47;;;;;;;;;;;6.50;99.90;;;;;;5049509;28;19924;-73
2021/05/05 01:26:13;;;;;;;;;;;6.50;99.90;;;;;;5047374;28;19971;-73
2021/05/05 01:28:41;;;;;;;;;;;6.60;99.90;;;;;;5047303;28;19956;-73
2021/05/05 01:31:07;;;;;;;;;;;6.50;99.90;;;;;;5032025;28;20008;-73
2021/05/05 01:33:33;;;;;;;;;;;6.50;99.90;;;;;;5049143;28;19924;-72
2021/05/05 01:35:58;;;;;;;;;;;6.50;99.90;;;;;;5030422;28;20495;-72
2021/05/05 01:38:24;;;;;;;;;;;6.50;99.90;;;;;;5047777;28;19928;-72
2021/05/05 01:40:52;;;;;;;;;;;6.50;99.90;;;;;;5031013;28;20330;-72
2021/05/05 01:43:20;;;;;;;;;;;6.50;99.90;;;;;;5047827;28;19916;-72
2021/05/05 01:45:48;;;;;;;;;;;6.60;99.90;;;;;;5015177;28;19925;-73
2021/05/05 01:48:16;;;;;;;;;;;6.60;99.90;;;;;;5011800;28;19951;-73
2021/05/05 01:50:42;;;;;;;;;;;6.60;99.90;;;;;;5014350;28;20262;-72
2021/05/05 01:53:07;;;;;;;;;;;6.60;99.90;;;;;;5047387;28;19921;-72
2021/05/05 01:55:33;;;;;;;;;;;6.60;99.90;;;;;;5029251;28;19917;-72
2021/05/05 01:57:59;;;;;;;;;;;6.50;99.90;;;;;;5029814;28;19920;-73
2021/05/05 02:00:25;;;;;;;;;;;6.50;99.90;;;;;;5047550;28;20495;-73
2021/05/05 02:02:50;;;;;;;;;;;6.50;99.90;;;;;;5032386;28;19920;-72
2021/05/05 02:05:16;;;;;;;;;;;6.50;99.90;;;;;;5047412;28;19932;-72
2021/05/05 02:07:41;;;;;;;;;;;6.50;99.90;;;;;;5031321;28;19925;-72
2021/05/05 02:10:10;;;;;;;;;;;6.50;99.90;;;;;;5046606;28;20453;-72
2021/05/05 02:12:36;;;;;;;;;;;6.40;99.90;;;;;;5045748;28;19979;-72
2021/05/05 02:15:02;;;;;;;;;;;6.50;99.90;;;;;;5029739;28;19928;-72
2021/05/05 02:17:28;;;;;;;;;;;6.40;99.90;;;;;;5047404;28;19917;-73
2021/05/05 02:19:54;;;;;;;;;;;6.40;99.90;;;;;;5047325;28;19967;-72
2021/05/05 02:22:19;;;;;;;;;;;6.40;99.90;;;;;;5012369;28;21418;-72
2021/05/05 02:24:47;;;;;;;;;;;6.40;99.90;;;;;;5046789;28;19917;-72
2021/05/05 02:27:12;;;;;;;;;;;6.40;99.90;;;;;;5032166;28;19916;-72
2021/05/05 02:29:38;;;;;;;;;;;6.40;99.90;;;;;;5046516;28;19931;-72
2021/05/05 02:32:04;;;;;;;;;;;6.40;99.90;;;;;;5031795;28;20285;-72
2021/05/05 02:34:30;;;;;;;;;;;6.40;99.90;;;;;;5029114;28;20250;-72
2021/05/05 02:36:55;;;;;;;;;;;6.40;99.90;;;;;;5047174;28;19921;-72
2021/05/05 02:39:21;;;;;;;;;;;6.40;99.90;;;;;;5048304;28;19916;-73
2021/05/05 02:41:47;;;;;;;;;;;6.40;99.90;;;;;;5050754;28;19951;-72
2021/05/05 02:44:13;;;;;;;;;;;6.40;99.90;;;;;;5051104;28;20462;-72
2021/05/05 02:46:41;;;;;;;;;;;6.40;99.90;;;;;;5034291;28;19952;-72
2021/05/05 02:49:06;;;;;;;;;;;6.30;99.90;;;;;;5018857;28;19917;-72
2021/05/05 02:51:32;;;;;;;;;;;6.30;99.90;;;;;;5050927;28;20488;-72
2021/05/05 02:54:02;;;;;;;;;;;6.30;99.90;;;;;;5023127;28;19921;-73
2021/05/05 02:56:30;;;;;;;;;;;6.30;99.90;;;;;;5048868;28;20001;-72
2021/05/05 02:58:56;;;;;;;;;;;6.30;99.90;;;;;;5049971;28;20606;-72
2021/05/05 03:01:21;;;;;;;;;;;6.20;99.90;;;;;;5050823;28;19920;-72
2021/05/05 03:03:47;;;;;;;;;;;6.20;99.90;;;;;;5050311;28;19921;-72
2021/05/05 03:06:12;;;;;;;;;;;6.10;99.90;;;;;;5049873;28;20386;-72
2021/05/05 03:08:40;;;;;;;;;;;6.10;99.90;;;;;;5049952;28;20011;-72
2021/05/05 03:11:08;;;;;;;;;;;6.10;99.90;;;;;;5050771;28;19932;-72
2021/05/05 03:13:33;;;;;;;;;;;6.00;99.90;;;;;;5031680;28;19924;-72
2021/05/05 03:15:59;;;;;;;;;;;6.00;99.90;;;;;;5033228;28;19921;-73
2021/05/05 03:18:25;;;;;;;;;;;6.00;99.90;;;;;;5033265;28;20346;-72
2021/05/05 03:20:50;;;;;;;;;;;6.00;99.90;;;;;;5050398;28;19924;-72
2021/05/05 03:23:18;;;;;;;;;;;5.90;99.90;;;;;;5032101;28;19917;-72
2021/05/05 03:25:44;;;;;;;;;;;5.90;99.90;;;;;;5050849;28;19917;-73
2021/05/05 03:28:14;;;;;;;;;;;5.80;99.90;;;;;;5049878;28;20384;-73
2021/05/05 03:30:39;;;;;;;;;;;5.80;99.90;;;;;;5033705;28;20373;-73
2021/05/05 03:33:05;;;;;;;;;;;5.70;99.90;;;;;;5050574;28;19999;-73
2021/05/05 03:35:30;;;;;;;;;;;5.70;99.90;;;;;;5051515;28;20764;-73
2021/05/05 03:37:56;;;;;;;;;;;5.70;99.90;;;;;;5034278;28;19951;-73
2021/05/05 03:40:21;;;;;;;;;;;5.60;99.90;;;;;;5050126;28;19974;-72
2021/05/05 03:42:47;;;;;;;;;;;5.60;99.90;;;;;;5019193;28;19934;-72
2021/05/05 03:45:12;;;;;;;;;;;5.50;99.90;;;;;;5031222;28;19967;-72
2021/05/05 03:47:38;;;;;;;;;;;5.50;99.90;;;;;;5049808;28;19919;-72
2021/05/05 03:50:05;;;;;;;;;;;5.50;99.90;;;;;;5031169;28;19931;-73
2021/05/05 03:52:33;;;;;;;;;;;5.50;99.90;;;;;;5049305;28;19921;-72
2021/05/05 03:54:58;;;;;;;;;;;5.50;99.90;;;;;;5050044;28;19975;-72
2021/05/05 03:57:26;;;;;;;;;;;5.60;99.90;;;;;;5050648;28;19994;-72
2021/05/05 03:59:54;;;;;;;;;;;5.60;99.90;;;;;;5030299;28;19978;-72
2021/05/05 04:02:20;;;;;;;;;;;5.70;99.90;;;;;;5014780;28;19982;-72
2021/05/05 04:04:45;;;;;;;;;;;5.70;99.90;;;;;;5047506;28;20897;-72
2021/05/05 04:07:11;;;;;;;;;;;5.70;99.90;;;;;;5032365;28;19917;-72
2021/05/05 04:09:36;;;;;;;;;;;5.60;99.90;;;;;;5050387;28;20337;-72
2021/05/05 04:12:05;;;;;;;;;;;5.70;99.90;;;;;;5049590;28;19947;-72
2021/05/05 04:14:30;;;;;;;;;;;5.70;99.90;;;;;;5050105;28;19921;-72
2021/05/05 04:16:58;;;;;;;;;;;5.60;99.90;;;;;;5050111;28;20317;-72
2021/05/05 04:19:24;;;;;;;;;;;5.70;99.90;;;;;;5049871;28;20004;-72
2021/05/05 04:21:49;;;;;;;;;;;5.70;99.90;;;;;;5030371;28;19938;-72
2021/05/05 04:24:15;;;;;;;;;;;5.70;99.90;;;;;;5031630;28;19912;-72
2021/05/05 04:26:45;;;;;;;;;;;5.80;99.90;;;;;;5032039;28;19921;-72
2021/05/05 04:29:11;;;;;;;;;;;5.70;99.90;;;;;;5048875;28;19921;-72
2021/05/05 04:31:36;;;;;;;;;;;5.70;99.90;;;;;;5049016;28;19921;-72
2021/05/05 04:34:04;;;;;;;;;;;5.70;99.90;;;;;;5049202;28;20040;-72
2021/05/05 04:36:32;;;;;;;;;;;5.60;99.90;;;;;;5048844;28;20008;-72
2021/05/05 04:38:59;;;;;;;;;;;5.60;99.90;;;;;;5049690;28;20025;-73
2021/05/05 04:41:25;;;;;;;;;;;5.60;99.90;;;;;;5048407;28;19994;-72
2021/05/05 04:43:50;;;;;;;;;;;5.70;99.90;;;;;;5030636;28;19916;-76
2021/05/05 04:46:18;;;;;;;;;;;5.70;99.90;;;;;;5049976;28;19998;-72
2021/05/05 04:48:44;;;;;;;;;;;5.70;99.90;;;;;;5047264;28;19921;-72
2021/05/05 04:51:12;;;;;;;;;;;5.70;99.90;;;;;;5049870;28;19921;-72
2021/05/05 04:53:37;;;;;;;;;;;5.70;99.90;;;;;;5049074;28;19920;-72
2021/05/05 04:56:03;;;;;;;;;;;5.70;99.90;;;;;;5048685;28;20456;-72
2021/05/05 04:58:28;;;;;;;;;;;5.70;99.90;;;;;;5049782;28;19986;-72
2021/05/05 05:00:54;;;;;;;;;;;5.70;99.90;;;;;;5030342;28;20523;-72
2021/05/05 05:03:21;;;;;;;;;;;5.70;99.90;;;;;;5048006;28;20342;-72
2021/05/05 05:05:47;;;;;;;;;;;5.70;99.90;;;;;;5048754;28;19920;-72
2021/05/05 05:08:12;;;;;;;;;;;5.80;99.90;;;;;;5049077;28;19931;-72
2021/05/05 05:10:40;;;;;;;;;;;5.80;99.90;;;;;;5048033;28;19959;-72
2021/05/05 05:13:06;;;;;;;;;;;5.80;99.90;;;;;;5048255;28;20019;-72
2021/05/05 05:15:32;;;;;;;;;;;5.80;99.90;;;;;;5048718;28;19920;-72
2021/05/05 05:17:57;;;;;;;;;;;5.90;99.90;;;;;;5048833;28;20271;-73
2021/05/05 05:20:23;;;;;;;;;;;5.90;99.90;;;;;;5048470;28;19935;-72
2021/05/05 05:22:51;;;;;;;;;;;6.00;99.90;;;;;;5046285;28;19986;-72
2021/05/05 05:25:16;;;;;;;;;;;6.00;99.90;;;;;;5048659;28;19912;-73
2021/05/05 05:27:42;;;;;;;;;;;6.10;99.90;;;;;;5047698;28;19946;-73
2021/05/05 05:30:08;;;;;;;;;;;6.20;99.90;;;;;;5045902;28;19982;-73
2021/05/05 05:32:33;;;;;;;;;;;6.20;99.90;;;;;;5048470;28;20385;-72
2021/05/05 05:34:59;;;;;;;;;;;6.30;99.90;;;;;;5029929;28;19932;-73
2021/05/05 05:37:27;;;;;;;;;;;6.50;99.90;;;;;;5047648;28;20543;-73
2021/05/05 05:39:52;;;;;;;;;;;6.50;99.90;;;;;;5047256;28;19931;-73
2021/05/05 05:42:20;;;;;;;;;;;6.50;99.90;;;;;;5047309;28;19916;-74
2021/05/05 05:44:45;;;;;;;;;;;6.60;99.90;;;;;;5016359;28;19932;-73
2021/05/05 05:47:13;;;;;;;;;;;6.60;99.90;;;;;;5046269;28;19916;-73
2021/05/05 05:49:39;;;;;;;;;;;6.60;99.90;;;;;;5047853;28;19927;-73
2021/05/05 05:52:04;;;;;;;;;;;6.70;99.90;;;;;;5047016;28;19921;-74
2021/05/05 05:54:30;;;;;;;;;;;6.70;99.70;;;;;;5049168;28;20409;-73
2021/05/05 05:56:57;;;;;;;;;;;6.70;99.90;;;;;;5047123;28;20073;-72
2021/05/05 05:59:23;;;;;;;;;;;6.90;99.30;;;;;;5015285;28;20426;-72
2021/05/05 06:01:49;;;;;;;;;;;6.90;99.80;;;;;;5011835;28;19925;-72
2021/05/05 06:04:16;;;;;;;;;;;6.90;98.40;;;;;;5047316;28;19976;-71
2021/05/05 06:06:42;;;;;;;;;;;6.90;98.20;;;;;;5045837;28;20027;-72
2021/05/05 06:09:10;;;;;;;;;;;7.00;99.60;;;;;;5047026;28;20281;-72
2021/05/05 06:11:38;;;;;;;;;;;7.10;97.90;;;;;;5029079;28;19927;-72
2021/05/05 06:14:06;;;;;;;;;;;7.10;96.80;;;;;;5045535;28;19916;-72
2021/05/05 06:16:34;;;;;;;;;;;7.10;96.70;;;;;;5048035;28;19925;-72
2021/05/05 06:18:59;;;;;;;;;;;7.20;97.80;;;;;;5030688;28;20042;-72
2021/05/05 06:21:25;;;;;;;;;;;7.20;97.70;;;;;;5044509;28;19924;-72
2021/05/05 06:23:51;;;;;;;;;;;7.20;93.90;;;;;;5045104;28;19928;-73
2021/05/05 06:26:17;;;;;;;;;;;7.30;96.70;;;;;;5045262;28;19932;-72
2021/05/05 06:28:42;;;;;;;;;;;7.20;93.80;;;;;;5046360;28;19930;-72
2021/05/05 06:31:08;;;;;;;;;;;7.30;95.40;;;;;;5045298;28;20299;-72
2021/05/05 06:33:34;;;;;;;;;;;7.40;94.30;;;;;;5045107;28;20262;-72
2021/05/05 06:36:00;;;;;;;;;;;7.30;94.60;;;;;;5043904;28;19921;-73
2021/05/05 06:38:26;;;;;;;;;;;7.40;94.70;;;;;;5042316;28;19949;-72
2021/05/05 06:40:52;;;;;;;;;;;7.30;93.50;;;;;;5042488;28;20012;-72
2021/05/05 06:43:17;;;;;;;;;;;7.30;94.10;;;;;;5024818;28;19925;-72
2021/05/05 06:45:44;;;;;;;;;;;7.40;93.80;;;;;;5011668;28;19917;-71
2021/05/05 06:48:09;;;;;;;;;;;7.60;95.80;;;;;;5042796;28;19916;-71
2021/05/05 06:50:35;;;;;;;;;;;7.60;95.70;;;;;;5042478;28;19921;-71
2021/05/05 06:53:01;;;;;;;;;;;7.70;95.80;;;;;;5024778;28;19928;-71
2021/05/05 06:55:26;;;;;;;;;;;7.70;93.90;;;;;;5041312;28;19921;-72
2021/05/05 06:57:54;;;;;;;;;;;7.80;94.60;;;;;;5021473;28;19916;-72
2021/05/05 07:00:20;;;;;;;;;;;7.90;94.10;;;;;;5043638;28;21880;-72
2021/05/05 07:02:46;;;;;;;;;;;8.00;93.60;;;;;;5043716;28;20563;-71
2021/05/05 07:05:12;;;;;;;;;;;8.10;94.40;;;;;;5040861;28;19921;-71
2021/05/05 07:07:38;;;;;;;;;;;8.10;92.90;;;;;;5021838;28;19921;-71
2021/05/05 07:10:04;;;;;;;;;;;8.20;92.40;;;;;;5022313;28;19931;-71
2021/05/05 07:12:29;;;;;;;;;;;8.30;94.50;;;;;;5022360;28;19932;-72
2021/05/05 07:14:55;;;;;;;;;;;8.30;93.60;;;;;;5022035;28;19931;-72
2021/05/05 07:17:20;;;;;;;;;;;8.30;93.10;;;;;;5022776;28;19952;-72
2021/05/05 07:19:46;;;;;;;;;;;8.30;93.60;;;;;;5022229;28;19913;-72
2021/05/05 07:22:14;;;;;;;;;;;8.30;95.90;;;;;;5020780;28;19984;-72
2021/05/05 07:24:40;;;;;;;;;;;8.20;97.00;;;;;;5036592;28;20570;-72
2021/05/05 07:27:05;;;;;;;;;;;8.10;98.00;;;;;;5025891;28;19921;-71
2021/05/05 07:29:33;;;;;;;;;;;7.90;98.50;;;;;;5025652;28;20289;-72
2021/05/05 07:31:59;;;;;;;;;;;7.90;99.90;;;;;;5024802;28;19999;-71
2021/05/05 07:34:25;;;;;;;;;;;8.00;99.90;;;;;;5026151;28;19917;-71
2021/05/05 07:36:52;;;;;;;;;;;7.80;99.90;;;;;;5025615;28;19979;-73
2021/05/05 07:47:37;;;;;;;;;;;8.10;99.90;;;;;;5025343;28;19979;-72
2021/05/05 07:50:04;;;;;;;;;;;8.10;99.90;;;;;;5024949;28;19960;-72
2021/05/05 07:52:30;;;;;;;;;;;8.20;99.90;;;;;;5025666;28;19932;-72
2021/05/05 07:55:01;;;;;;;;;;;8.30;99.90;;;;;;5025053;28;20516;-71
2021/05/05 07:57:27;;;;;;;;;;;8.50;99.90;;;;;;5025585;28;19931;-71
2021/05/05 07:59:52;;;;;;;;;;;8.60;99.60;;;;;;5024266;28;20236;-71
2021/05/05 08:02:18;;;;;;;;;;;8.70;95.30;;;;;;5025680;28;19925;-73
2021/05/05 08:04:52;;;;;;;;;;;8.90;99.90;;;;;;5024416;28;19917;-72
2021/05/05 08:07:21;;;;;;;;;;;9.00;93.90;;;;;;5025247;28;21722;-71
2021/05/05 08:09:47;;;;;;;;;;;9.00;90.90;;;;;;5029123;28;19917;-71
2021/05/05 08:12:12;;;;;;;;;;;9.10;89.70;;;;;;5001024;28;19994;-71
2021/05/05 08:14:38;;;;;;;;;;;9.10;81.10;;;;;;5028283;28;19917;-73
2021/05/05 08:17:04;;;;;;;;;;;8.90;86.40;;;;;;5034089;28;19921;-72
2021/05/05 08:19:32;;;;;;;;;;;9.20;87.40;;;;;;5020516;28;19916;-71
2021/05/05 08:22:00;;;;;;;;;;;9.20;84.10;;;;;;5027432;28;19925;-72
2021/05/05 08:24:28;;;;;;;;;;;9.40;87.60;;;;;;5044099;28;19917;-71
2021/05/05 08:26:56;;;;;;;;;;;9.70;92.80;;;;;;5044286;28;19920;-71
2021/05/05 08:29:22;;;;;;;;;;;9.80;85.70;;;;;;5027479;28;20114;-72
2021/05/05 08:31:48;;;;;;;;;;;9.70;82.10;;;;;;5029102;28;20434;-72
2021/05/05 08:34:14;;;;;;;;;;;9.40;78.40;;;;;;5029340;28;20406;-72
2021/05/05 08:36:42;;;;;;;;;;;9.40;81.40;;;;;;5027086;28;21904;-72
2021/05/05 08:39:08;;;;;;;;;;;9.30;81.80;;;;;;5048368;28;19921;-71
2021/05/05 08:41:34;;;;;;;;;;;9.40;78.50;;;;;;5028599;28;19940;-72
2021/05/05 08:43:59;;;;;;;;;;;9.40;75.50;;;;;;5031091;28;19921;-71
2021/05/05 08:46:25;;;;;;;;;;;9.50;71.00;;;;;;5027492;28;19927;-73
2021/05/05 08:48:53;;;;;;;;;;;9.50;71.90;;;;;;5001309;28;19921;-71
2021/05/05 08:51:19;;;;;;;;;;;9.80;73.60;;;;;;5014500;28;19916;-71
2021/05/05 08:53:46;;;;;;;;;;;10.00;70.60;;;;;;5028186;28;19924;-70
2021/05/05 08:56:12;;;;;;;;;;;10.10;67.40;;;;;;5047065;28;20369;-71
2021/05/05 08:58:38;;;;;;;;;;;10.30;67.10;;;;;;5028609;28;19920;-71
2021/05/05 09:01:06;;;;;;;;;;;10.60;68.30;;;;;;5047180;28;19991;-71
2021/05/05 09:03:32;;;;;;;;;;;10.50;64.40;;;;;;5030186;28;19931;-71
2021/05/05 09:05:58;;;;;;;;;;;10.40;66.40;;;;;;5014413;28;19924;-70
2021/05/05 09:08:26;;;;;;;;;;;10.50;62.20;;;;;;5046751;28;19935;-71
2021/05/05 09:10:55;;;;;;;;;;;10.70;64.00;;;;;;5027675;28;19973;-71
2021/05/05 09:13:39;;;;;;;;;;;10.80;67.40;;;;;;5045369;28;20150;-71
2021/05/05 09:16:05;;;;;;;;;;;10.80;66.20;;;;;;5043509;28;20263;-71
2021/05/05 09:18:32;;;;;;;;;;;11.00;63.60;;;;;;5028112;28;20327;-72
2021/05/05 09:21:07;;;;;;;;;;;10.80;63.90;;;;;;5029597;28;19967;-71
2021/05/05 09:23:33;;;;;;;;;;;10.30;65.30;;;;;;5014262;28;19917;-70
2021/05/05 09:25:59;;;;;;;;;;;9.60;72.00;;;;;;5012196;28;21017;-69
2021/05/05 09:28:26;;;;;;;;;;;9.00;99.90;;;;;;5028058;28;20381;-71
2021/05/05 09:30:54;;;;;;;;;;;8.10;99.90;;;;;;5044854;28;19921;-72
2021/05/05 09:33:23;;;;;;;;;;;7.40;99.90;;;;;;5029957;28;20056;-71
2021/05/05 09:35:51;;;;;;;;;;;6.70;99.90;;;;;;5045826;28;19921;-69
2021/05/05 09:38:17;;;;;;;;;;;6.00;99.90;;;;;;5027713;28;19978;-71
2021/05/05 09:40:55;;;;;;;;;;;5.80;99.90;;;;;;5045678;28;19921;-73
2021/05/05 09:43:23;;;;;;;;;;;5.60;99.90;;;;;;5043652;28;19920;-72
2021/05/05 09:45:51;;;;;;;;;;;5.40;99.90;;;;;;5026114;28;19917;-70
2021/05/05 09:48:23;;;;;;;;;;;5.40;99.90;;;;;;5046544;28;19950;-70
2021/05/05 09:50:51;;;;;;;;;;;5.40;99.90;;;;;;5026918;28;19924;-71
2021/05/05 09:53:18;;;;;;;;;;;5.30;99.90;;;;;;5044382;28;20067;-70
2021/05/05 09:56:03;;;;;;;;;;;5.30;99.90;;;;;;5027451;28;20424;-70
2021/05/05 09:58:38;;;;;;;;;;;5.30;99.90;;;;;;5045705;28;19928;-71
2021/05/05 10:01:04;;;;;;;;;;;5.50;99.90;;;;;;5044273;28;20568;-70
2021/05/05 10:03:36;;;;;;;;;;;5.90;99.90;;;;;;5045472;28;19932;-71
2021/05/05 10:06:20;;;;;;;;;;;6.20;99.90;;;;;;5044640;28;20455;-69
2021/05/05 10:08:50;;;;;;;;;;;6.40;99.90;;;;;;5045889;28;19940;-71
2021/05/05 10:11:20;;;;;;;;;;;6.60;99.90;;;;;;5023999;28;19927;-72
2021/05/05 10:13:46;;;;;;;;;;;6.60;99.90;;;;;;5045052;28;19921;-69
2021/05/05 10:16:12;;;;;;;;;;;6.90;99.90;;;;;;5027840;28;20007;-70
2021/05/05 10:18:37;;;;;;;;;;;6.90;99.90;;;;;;5028226;28;19927;-70
2021/05/05 10:21:03;;;;;;;;;;;7.00;99.90;;;;;;5027638;28;20039;-70
2021/05/05 10:23:29;;;;;;;;;;;6.80;99.90;;;;;;5027905;28;19928;-70
2021/05/05 10:25:55;;;;;;;;;;;6.70;99.90;;;;;;5013940;28;19921;-71
2021/05/05 10:28:20;;;;;;;;;;;6.80;99.90;;;;;;5019536;28;19920;-72
2021/05/05 10:30:48;;;;;;;;;;;6.90;99.90;;;;;;5026918;28;19917;-71
2021/05/05 10:33:25;;;;;;;;;;;6.80;99.90;;;;;;5025361;28;19917;-70
2021/05/05 10:35:53;;;;;;;;;;;6.90;99.90;;;;;;5045402;28;19920;-69
2021/05/05 10:38:31;;;;;;;;;;;7.00;99.90;;;;;;5045278;28;19982;-69
2021/05/05 10:41:23;;;;;;;;;;;7.30;99.90;;;;;;5044959;28;20644;-70
2021/05/05 10:43:50;;;;;;;;;;;7.40;99.90;;;;;;5040122;28;19932;-72
2021/05/05 10:46:29;;;;;;;;;;;7.50;99.90;;;;;;5026155;28;19920;-70
2021/05/05 10:49:12;;;;;;;;;;;7.70;99.90;;;;;;5043330;28;20083;-70
2021/05/05 10:51:49;;;;;;;;;;;7.80;99.90;;;;;;5045062;28;19921;-70
2021/05/05 10:54:14;;;;;;;;;;;7.80;99.90;;;;;;5044994;28;19916;-69
2021/05/05 10:56:40;;;;;;;;;;;7.90;99.90;;;;;;5042846;28;19921;-71
2021/05/05 10:59:07;;;;;;;;;;;8.20;99.90;;;;;;5044762;28;19921;-70
2021/05/05 11:01:36;;;;;;;;;;;8.30;99.90;;;;;;4351485;28;10000755;-70
2021/05/05 11:04:02;;;;;;;;;;;8.40;98.20;;;;;;5046911;28;19952;-72
2021/05/05 11:06:34;;;;;;;;;;;8.80;99.90;;;;;;5046968;28;20029;-70
2021/05/05 11:09:12;;;;;;;;;;;8.90;99.90;;;;;;5048234;28;20639;-70
2021/05/05 11:11:44;;;;;;;;;;;9.30;99.90;;;;;;5047060;28;19917;-70
2021/05/05 11:14:28;;;;;;;;;;;9.50;98.30;;;;;;5047941;28;19920;-70
2021/05/05 11:17:15;;;;;;;;;;;9.80;97.70;;;;;;5034679;28;19916;-70
2021/05/05 11:19:40;;;;;;;;;;;9.90;91.80;;;;;;5047875;28;20630;-70
2021/05/05 11:22:18;;;;;;;;;;;10.10;92.10;;;;;;5047236;28;19920;-70
2021/05/05 11:24:44;;;;;;;;;;;10.00;90.10;;;;;;5032976;28;20022;-72
2021/05/05 11:27:10;;;;;;;;;;;10.20;90.20;;;;;;5018231;28;19920;-73
2021/05/05 11:29:40;;;;;;;;;;;10.70;95.30;;;;;;5047178;28;19916;-72
2021/05/05 11:32:08;;;;;;;;;;;10.90;90.90;;;;;;5022192;28;19921;-73
2021/05/05 11:34:35;;;;;;;;;;;11.20;90.00;;;;;;4698969;28;10001090;-70
2021/05/05 11:37:01;;;;;;;;;;;11.10;79.70;;;;;;5029517;28;20437;-71
2021/05/05 11:39:37;;;;;;;;;;;11.20;81.50;;;;;;5050645;28;19916;-71
2021/05/05 11:42:15;;;;;;;;;;;11.00;90.00;;;;;;5046714;28;20015;-71
2021/05/05 11:44:41;;;;;;;;;;;11.10;89.00;;;;;;5027974;28;19920;-70
2021/05/05 11:47:08;;;;;;;;;;;10.90;77.60;;;;;;5029130;28;19921;-70
2021/05/05 11:49:34;;;;;;;;;;;10.90;79.90;;;;;;5011747;28;20781;-70
2021/05/05 11:52:17;;;;;;;;;;;10.70;76.60;;;;;;5047218;28;19921;-70
2021/05/05 11:54:43;;;;;;;;;;;10.40;79.40;;;;;;5046223;28;19913;-70
2021/05/05 11:57:11;;;;;;;;;;;10.10;80.10;;;;;;5047160;28;20366;-70
2021/05/05 11:59:36;;;;;;;;;;;9.60;84.90;;;;;;5048669;28;20358;-71
2021/05/05 12:02:02;;;;;;;;;;;9.10;92.30;;;;;;5029491;28;20039;-70
2021/05/05 12:04:40;;;;;;;;;;;8.20;97.40;;;;;;5029682;28;20002;-72
2021/05/05 12:07:10;;;;;;;;;;;7.70;98.80;;;;;;5030691;28;20020;-70
2021/05/05 12:09:36;;;;;;;;;;;7.40;99.90;;;;;;5047006;28;19964;-71
2021/05/05 12:12:14;;;;;;;;;;;7.20;99.90;;;;;;5046010;28;20267;-70
2021/05/05 12:14:41;;;;;;;;;;;6.90;99.90;;;;;;5048265;28;19921;-71
2021/05/05 12:17:18;;;;;;;;;;;6.80;99.90;;;;;;5048079;28;19916;-71
2021/05/05 12:19:56;;;;;;;;;;;6.70;99.90;;;;;;5048117;28;19920;-71
2021/05/05 12:22:22;;;;;;;;;;;6.60;99.90;;;;;;5029883;28;20350;-71
2021/05/05 12:25:07;;;;;;;;;;;6.80;99.90;;;;;;5029286;28;19928;-73
2021/05/05 12:27:32;;;;;;;;;;;6.80;99.90;;;;;;5046383;28;20011;-71
2021/05/05 12:29:58;;;;;;;;;;;7.10;99.90;;;;;;5047116;28;21715;-71
2021/05/05 12:32:24;;;;;;;;;;;7.00;99.90;;;;;;5046590;28;19921;-71
2021/05/05 12:34:58;;;;;;;;;;;7.10;99.90;;;;;;5029741;28;20349;-71
2021/05/05 12:37:24;;;;;;;;;;;7.20;99.90;;;;;;5047826;28;20062;-71
2021/05/05 12:39:52;;;;;;;;;;;7.50;99.90;;;;;;5027815;28;19920;-70
2021/05/05 12:42:20;;;;;;;;;;;7.90;99.90;;;;;;5047845;28;19932;-70
2021/05/05 12:44:47;;;;;;;;;;;8.10;99.90;;;;;;5046023;28;19954;-70
2021/05/05 12:47:13;;;;;;;;;;;8.50;99.90;;;;;;5046571;28;19917;-74
2021/05/05 12:49:39;;;;;;;;;;;8.60;99.90;;;;;;5046706;28;19932;-72
2021/05/05 12:52:05;;;;;;;;;;;8.90;99.90;;;;;;5047741;28;20534;-72
2021/05/05 12:54:43;;;;;;;;;;;9.00;97.30;;;;;;5047323;28;19920;-73
2021/05/05 12:57:15;;;;;;;;;;;9.00;99.90;;;;;;5047819;28;20357;-73
2021/05/05 12:59:40;;;;;;;;;;;9.30;99.30;;;;;;5045998;28;19968;-70
2021/05/05 13:02:10;;;;;;;;;;;9.50;93.90;;;;;;5045488;28;20402;-72
2021/05/05 13:04:39;;;;;;;;;;;9.90;91.90;;;;;;5048439;28;19921;-70
2021/05/05 13:07:07;;;;;;;;;;;9.90;91.20;;;;;;5033554;28;20397;-71
2021/05/05 13:09:34;;;;;;;;;;;10.00;91.60;;;;;;5010275;28;19939;-71
2021/05/05 13:12:28;;;;;;;;;;;10.40;97.10;;;;;;5045745;28;19928;-71
2021/05/05 13:15:07;;;;;;;;;;;10.70;90.40;;;;;;5046328;28;19920;-72
2021/05/05 13:31:24;;;;;;;;;;;11.20;75.30;;;;;;5046826;28;19927;-71
2021/05/05 13:33:59;;;;;;;;;;;11.00;74.50;;;;;;5046283;28;20658;-71
2021/05/05 13:36:46;;;;;;;;;;;10.90;69.50;;;;;;5047037;28;19991;-70
2021/05/05 13:39:14;;;;;;;;;;;10.50;68.60;;;;;;5046263;28;20303;-70
2021/05/05 13:41:43;;;;;;;;;;;10.50;69.30;;;;;;5048103;28;19963;-71
2021/05/05 13:44:17;;;;;;;;;;;10.60;73.70;;;;;;5046890;28;19912;-71
2021/05/05 13:51:50;;;;;;;;;;;11.00;72.40;;;;;;5045693;28;20040;-70
2021/05/05 13:54:16;;;;;;;;;;;11.10;75.50;;;;;;5046240;28;19931;-70
2021/05/05 13:56:41;;;;;;;;;;;11.10;66.90;;;;;;5027670;28;19920;-70
2021/05/05 13:59:07;;;;;;;;;;;10.90;67.70;;;;;;5046248;28;19928;-71
2021/05/05 14:01:32;;;;;;;;;;;11.00;69.50;;;;;;5045285;28;20058;-71
2021/05/05 14:04:00;;;;;;;;;;;10.90;67.10;;;;;;5026217;28;19970;-70
2021/05/05 14:06:26;;;;;;;;;;;10.80;65.60;;;;;;5045746;28;19917;-72
2021/05/05 14:08:52;;;;;;;;;;;10.80;64.90;;;;;;5014171;28;20496;-71
2021/05/05 14:11:17;;;;;;;;;;;10.60;64.10;;;;;;5045156;28;19967;-71
2021/05/05 14:13:43;;;;;;;;;;;10.60;64.00;;;;;;5045623;28;20370;-70
2021/05/05 14:16:10;;;;;;;;;;;10.40;65.10;;;;;;5026579;28;19917;-71
2021/05/05 14:18:36;;;;;;;;;;;10.40;63.40;;;;;;5045556;28;20360;-70
2021/05/05 14:21:07;;;;;;;;;;;10.20;66.60;;;;;;5027379;28;19925;-70
2021/05/05 14:23:33;;;;;;;;;;;10.20;66.10;;;;;;5045329;28;20305;-71
2021/05/05 14:25:58;;;;;;;;;;;10.20;64.60;;;;;;5026021;28;19985;-72
2021/05/05 14:28:26;;;;;;;;;;;9.90;64.60;;;;;;5045613;28;19924;-71
2021/05/05 14:30:51;;;;;;;;;;;9.80;66.40;;;;;;5026183;28;21473;-71
2021/05/05 14:33:17;;;;;;;;;;;10.10;67.70;;;;;;5027242;28;19995;-71
2021/05/05 14:35:43;;;;;;;;;;;10.20;64.90;;;;;;5041938;28;19920;-70
2021/05/05 14:38:18;;;;;;;;;;;10.50;65.40;;;;;;5044141;28;19963;-73
2021/05/05 14:40:44;;;;;;;;;;;10.50;59.00;;;;;;5029312;28;20376;-69
2021/05/05 14:45:47;;;;;;;;;;;10.70;58.40;;;;;;5045551;28;19917;-72
2021/05/05 14:48:16;;;;;;;;;;;11.00;58.50;;;;;;5044756;28;19928;-70
2021/05/05 14:50:43;;;;;;;;;;;10.70;57.10;;;;;;5043881;28;20039;-70
2021/05/05 14:53:09;;;;;;;;;;;10.70;58.30;;;;;;5045311;28;19951;-71
2021/05/05 14:55:34;;;;;;;;;;;10.80;58.40;;;;;;5043443;28;19920;-71
2021/05/05 14:58:12;;;;;;;;;;;10.80;58.00;;;;;;5044045;28;19940;-71
2021/05/05 15:00:39;;;;;;;;;;;10.90;60.80;;;;;;5043341;28;19932;-70